MAPA DE AEROPUERTO

INFORMACIÓN METAR y TAF

METAR FOR EGPD
ADDS - METARS form results

(1321 UTC 26 February 2021)
Data provider http://aviationweather.gov/metar/data/
 
METAR text: EGPD 261250Z AUTO 18009KT 9999 NCD 12/03 Q1031
Conditions at: EGPD (ABERDEEN/DYCE , GB) observed 1250 UTC 26 February 2021
Temperature: 12.0°C (54°F)
Dewpoint: 3.0°C (37°F) [RH = 54%]
Pressure (altimeter): 30.44 inches Hg (1031.0 mb)
Winds: from the S (180 degrees) at 10 MPH (9 knots; 4.6 m/s)
Visibility: 6 or more miles (10+ km)
Ceiling: at least 12,000 feet AGL
Clouds: sky clear below 12,000 feet AGL
Weather: no significant weather observed at this time

Forecast for: EGPD (ABERDEEN/DYCE , GB)
Text: TAF EGPD 261057Z 2612/2712 23007KT CAVOK
Forecast period: 1200 UTC 26 February 2021 to 1200 UTC 27 February 2021
Forecast type: FROM: standard forecast or significant change
Winds: from the SW (230 degrees) at 8 MPH (7 knots; 3.6 m/s)
Visibility: 6 or more miles (10+ km)
Ceiling: unknown
Clouds: missing
Weather: NSW  (no significant weather)